world map with DNKN marked

DNKN - Airport

This information may not be accurate or current and is not valid for navigation or flight planning. No warranty of fitness for any purpose is made or implied.

flag of Nigeria

Donate via PayPal

Additional information is available on the NEW Great Circle Mapper

Location
City:  Kano, Kano, Nigeria
Name:Mallam Aminu Kano International Airport
ICAO / IATA:DNKN / KAN

Details
Type:Airport (Aerodrome, Airfield)
Use:Public/Civil, Military
Latitude:12°02'51"N (12.047589)
Longitude:8°31'29"E (8.524622)
Datum:WGS 1984
Elevation:1562 ft (476 m)
Runways:2
Longest:10831 × 197 ft (3301 × 60 m)

Time
Timezone:UTC+1 (DST+3)
Local Time:

Weather
METAR:DNKN  041400Z 14004KT CAVOK 34/05 Q1013 NOSIG
TAF:DNKN  040950Z 0412/0518 06010KT CAVOK= TAF LFBD 041100Z 0412/0518 15005KT CAVOK TX14/0514Z TN04/0412Z BECMG 0412/0413 20010KT PROB40 0413/0415 4500 RA BKN014 BECMG 0415/0417 3000 -RA BKN004 OVC012 BECMG 0422/0424 VRB02KT 1400 BR OVC001 PROB40 0500/0509 0500 FG VV/// BECMG 0510/0512 18005KT 6000 NSW BKN006 TEMPO 0512/0518 3000 -RADZ BKN003

Related Locations
Nearby:
Farthest:AAU: 12309 mi / 19810 km
Asau, WS

Find:

   beyond  
but within

Other Information
Maps:
Sources:

  


 


Great Circle Mapper   Great Circle Mapper
Great Circle Mapper FAQ   Great Circle Mapper FAQ
  Karl's Home Page
KLSē   KLSē Home
   GC on Facebook
Airlines of the World   Airlines of the World
Donate via PayPal


Copyright © 2004-2019, Karl L. Swartz. All rights reserved.
All trademarks mentioned herein belong to their respective owners.

Please see credits for attribution and copyright information.

Karl Swartz <karl@kls2.com>
  Powered by FreeBSD
Valid HTML 4.01!
Labeled with ICRA
hCard Microformat
Geo Microformat